createdAt,value
2018-12-17T00:00:40.684Z,25.40
2018-12-17T00:03:09.126Z,22.60
2018-12-17T00:05:41.714Z,20.60
2018-12-17T00:08:08.395Z,20.82
2018-12-17T00:10:36.842Z,24.07
2018-12-17T00:13:05.270Z,19.50
2018-12-17T00:15:33.703Z,23.77
2018-12-17T00:18:02.238Z,25.75
2018-12-17T00:20:30.686Z,30.23
2018-12-17T00:22:59.129Z,32.48
2018-12-17T00:25:27.549Z,24.65
2018-12-17T00:27:55.988Z,23.80
2018-12-17T00:30:24.414Z,21.62
2018-12-17T00:32:52.846Z,23.15
2018-12-17T00:35:21.256Z,21.77
2018-12-17T00:37:49.687Z,19.65
2018-12-17T00:40:18.258Z,27.58
2018-12-17T00:42:46.702Z,25.00
2018-12-17T00:45:15.126Z,24.43
2018-12-17T00:47:43.580Z,23.27
2018-12-17T00:50:11.998Z,21.02
2018-12-17T00:52:40.466Z,20.17
2018-12-17T00:55:08.898Z,21.27
2018-12-17T00:57:37.342Z,25.62
2018-12-17T01:00:09.138Z,24.23
2018-12-17T01:02:37.584Z,23.98
2018-12-17T01:05:06.605Z,21.10
2018-12-17T01:07:35.680Z,18.20
2018-12-17T01:10:06.239Z,20.48
2018-12-17T01:12:34.659Z,29.85
2018-12-17T01:15:03.306Z,22.50
2018-12-17T01:17:31.745Z,29.95
2018-12-17T01:20:00.170Z,25.30
2018-12-17T01:22:28.650Z,24.07
2018-12-17T01:24:57.070Z,22.32
2018-12-17T01:27:25.503Z,19.85
2018-12-17T01:29:53.930Z,18.60
2018-12-17T01:32:22.370Z,18.48
2018-12-17T01:34:50.809Z,24.70
2018-12-17T01:37:19.230Z,19.80
2018-12-17T01:39:47.836Z,17.20
2018-12-17T01:42:16.387Z,19.23
2018-12-17T01:44:44.829Z,18.05
2018-12-17T01:47:13.246Z,23.75
2018-12-17T01:49:41.698Z,23.20
2018-12-17T01:52:10.152Z,23.47
2018-12-17T01:54:38.586Z,29.20
2018-12-17T01:57:07.018Z,27.10
2018-12-17T01:59:35.464Z,29.95
2018-12-17T02:02:04.008Z,31.97
2018-12-17T02:04:32.450Z,31.48
2018-12-17T02:07:00.939Z,28.38
2018-12-17T02:09:29.374Z,24.87
2018-12-17T02:11:57.848Z,28.57
2018-12-17T02:14:26.292Z,29.90
2018-12-17T02:16:54.730Z,32.63
2018-12-17T02:19:23.165Z,26.30
2018-12-17T02:21:51.598Z,30.90
2018-12-17T02:24:20.187Z,33.00
2018-12-17T02:26:48.617Z,28.73
2018-12-17T02:29:17.050Z,28.17
2018-12-17T02:31:45.490Z,27.40
2018-12-17T02:34:13.914Z,29.00
2018-12-17T02:36:42.366Z,23.18
2018-12-17T02:39:10.789Z,22.80
2018-12-17T02:41:39.231Z,20.37
2018-12-17T02:44:07.974Z,25.43
2018-12-17T02:46:36.415Z,21.77
2018-12-17T02:49:04.839Z,23.83
2018-12-17T02:51:33.846Z,22.50
2018-12-17T02:54:02.390Z,21.87
2018-12-17T02:56:30.833Z,21.80
2018-12-17T02:58:59.284Z,20.92
2018-12-17T03:01:27.738Z,24.23
2018-12-17T03:03:56.166Z,20.05
2018-12-17T03:06:24.605Z,24.25
2018-12-17T03:08:53.039Z,25.17
2018-12-17T03:11:21.471Z,27.20
2018-12-17T03:13:49.884Z,25.02
2018-12-17T03:16:18.326Z,26.05
2018-12-17T03:18:46.870Z,22.15
2018-12-17T03:21:15.713Z,24.60
2018-12-17T03:23:44.143Z,28.27
2018-12-17T03:26:12.600Z,25.57
2018-12-17T03:28:41.021Z,28.25
2018-12-17T03:31:09.439Z,27.25
2018-12-17T03:33:37.894Z,28.98
2018-12-17T03:36:06.314Z,25.12
2018-12-17T03:38:34.760Z,22.93
2018-12-17T03:41:03.177Z,22.60
2018-12-17T03:43:31.615Z,26.30
2018-12-17T03:46:00.218Z,26.65
2018-12-17T03:48:28.804Z,19.45
2018-12-17T03:50:57.246Z,20.77
2018-12-17T03:53:25.710Z,17.62
2018-12-17T03:55:54.126Z,19.62
2018-12-17T03:58:22.566Z,22.27
2018-12-17T04:00:50.986Z,24.52
2018-12-17T04:03:19.417Z,26.07
2018-12-17T04:05:47.839Z,22.55
2018-12-17T04:08:16.271Z,22.22
2018-12-17T04:10:44.688Z,21.45
2018-12-17T04:13:13.132Z,19.35
2018-12-17T04:15:41.685Z,19.52
2018-12-17T04:18:10.129Z,23.40
2018-12-17T04:20:38.545Z,25.23
2018-12-17T04:23:06.975Z,20.85
2018-12-17T04:25:35.385Z,21.20
2018-12-17T04:28:03.831Z,21.15
2018-12-17T04:30:32.306Z,17.95
2018-12-17T04:33:06.425Z,19.27
2018-12-17T04:35:34.870Z,17.00
2018-12-17T04:38:03.381Z,25.12
2018-12-17T04:40:31.836Z,21.05
2018-12-17T04:43:00.292Z,17.57
2018-12-17T04:45:28.718Z,18.98
2018-12-17T04:47:57.226Z,17.42
2018-12-17T04:50:25.662Z,17.12
2018-12-17T04:52:54.122Z,16.60
2018-12-17T04:55:22.607Z,14.18
2018-12-17T04:57:51.363Z,14.95
2018-12-17T05:00:19.835Z,15.60
2018-12-17T05:02:48.267Z,14.53
2018-12-17T05:05:16.766Z,14.70
2018-12-17T05:07:45.237Z,14.90
2018-12-17T05:10:13.686Z,12.23
2018-12-17T05:12:42.113Z,12.23
2018-12-17T05:15:10.569Z,15.58
2018-12-17T05:17:39.003Z,14.23
2018-12-17T05:20:07.583Z,24.23
2018-12-17T05:22:36.018Z,21.87
2018-12-17T05:25:05.161Z,17.12
2018-12-17T05:27:33.643Z,15.03
2018-12-17T05:30:02.091Z,14.15
2018-12-17T05:32:31.442Z,13.10
2018-12-17T05:35:00.121Z,15.40
2018-12-17T05:37:28.558Z,17.60
2018-12-17T05:39:57.003Z,22.25
2018-12-17T05:42:25.434Z,16.82
2018-12-17T05:44:53.920Z,13.32
2018-12-17T05:47:22.350Z,20.75
2018-12-17T05:49:50.775Z,21.93
2018-12-17T05:52:19.251Z,22.75
2018-12-17T05:54:47.680Z,16.07
2018-12-17T05:57:16.131Z,16.77
2018-12-17T05:59:44.558Z,18.23
2018-12-17T06:02:13.130Z,20.23
2018-12-17T06:04:41.559Z,18.10
2018-12-17T06:07:10.074Z,25.90
2018-12-17T06:09:38.788Z,22.45
2018-12-17T06:12:07.238Z,18.23
2018-12-17T06:14:35.714Z,16.73
2018-12-17T06:17:04.174Z,16.42
2018-12-17T06:19:32.610Z,16.35
2018-12-17T06:22:01.107Z,18.07
2018-12-17T06:24:29.541Z,16.50
2018-12-17T06:26:58.012Z,23.20
2018-12-17T06:29:26.464Z,19.12
2018-12-17T06:31:54.938Z,18.52
2018-12-17T06:34:23.365Z,24.77
2018-12-17T06:36:51.839Z,20.30
2018-12-17T06:39:20.483Z,18.35
2018-12-17T06:41:48.943Z,16.65
2018-12-17T06:44:17.386Z,24.07
2018-12-17T06:46:45.848Z,17.80
2018-12-17T06:49:14.288Z,18.90
2018-12-17T06:51:43.114Z,21.45
2018-12-17T06:54:11.611Z,17.35
2018-12-17T06:56:40.175Z,26.65
2018-12-17T06:59:08.640Z,24.30
2018-12-17T07:01:37.094Z,26.25
2018-12-17T07:04:05.555Z,23.87
2018-12-17T07:06:33.991Z,23.62
2018-12-17T07:09:02.456Z,18.80
2018-12-17T07:11:30.907Z,18.50
2018-12-17T07:14:00.201Z,19.48
2018-12-17T07:16:28.734Z,16.73
2018-12-17T07:18:57.203Z,18.40
2018-12-17T07:21:25.647Z,19.60
2018-12-17T07:23:54.107Z,18.35
2018-12-17T07:26:22.546Z,21.93
2018-12-17T07:28:51.012Z,21.25
2018-12-17T07:31:19.499Z,17.05
2018-12-17T07:33:47.965Z,15.08
2018-12-17T07:36:16.479Z,18.67
2018-12-17T07:38:44.956Z,17.07
2018-12-17T07:41:13.390Z,20.90
2018-12-17T07:43:42.050Z,17.30
2018-12-17T07:46:10.499Z,14.93
2018-12-17T07:48:38.950Z,15.13
2018-12-17T07:51:07.395Z,23.40
2018-12-17T07:53:35.876Z,16.57
2018-12-17T07:56:04.450Z,15.70
2018-12-17T07:58:32.901Z,17.35
2018-12-17T08:01:01.345Z,16.15
2018-12-17T08:03:29.814Z,16.70
2018-12-17T08:05:58.254Z,13.38
2018-12-17T08:08:26.690Z,13.07
2018-12-17T08:10:55.210Z,14.73
2018-12-17T08:13:23.646Z,14.35
2018-12-17T08:15:52.106Z,14.07
2018-12-17T08:18:22.134Z,14.98
2018-12-17T08:20:50.679Z,13.00
2018-12-17T08:23:19.242Z,13.30
2018-12-17T08:25:47.711Z,16.82
2018-12-17T08:28:16.343Z,12.98
2018-12-17T08:30:44.806Z,16.82
2018-12-17T08:33:13.246Z,12.00
2018-12-17T08:35:41.698Z,13.38
2018-12-17T08:38:10.175Z,15.23
2018-12-17T08:40:38.790Z,18.30
2018-12-17T08:43:07.243Z,12.50
2018-12-17T08:45:35.690Z,14.40
2018-12-17T08:48:04.156Z,12.45
2018-12-17T08:50:32.624Z,15.30
2018-12-17T08:53:01.087Z,13.70
2018-12-17T08:55:29.559Z,14.87
2018-12-17T08:57:58.113Z,17.97
2018-12-17T09:00:26.572Z,22.58
2018-12-17T09:02:55.073Z,21.10
2018-12-17T09:05:23.583Z,20.35
2018-12-17T09:07:52.151Z,20.35
2018-12-17T09:10:20.606Z,19.12
2018-12-17T09:12:49.042Z,16.73
2018-12-17T09:15:17.674Z,16.95
2018-12-17T09:17:46.109Z,17.33
2018-12-17T09:20:14.723Z,16.30
2018-12-17T09:22:43.269Z,17.10
2018-12-17T09:25:11.729Z,13.65
2018-12-17T09:27:40.172Z,14.03
2018-12-17T09:30:09.381Z,14.58
2018-12-17T09:32:37.851Z,14.10
2018-12-17T09:35:06.714Z,11.75
2018-12-17T09:37:35.175Z,10.32
2018-12-17T09:40:04.416Z,11.90
2018-12-17T09:42:32.866Z,12.40
2018-12-17T09:45:01.286Z,14.83
2018-12-17T09:47:29.855Z,13.67
2018-12-17T09:49:58.366Z,14.85
2018-12-17T09:52:26.835Z,14.20
2018-12-17T09:54:55.280Z,13.13
2018-12-17T09:57:23.731Z,10.77
2018-12-17T09:59:52.172Z,11.30
2018-12-17T10:02:20.643Z,15.33
2018-12-17T10:04:49.123Z,13.03
2018-12-17T10:07:17.579Z,20.03
2018-12-17T10:09:46.014Z,21.73
2018-12-17T10:12:14.474Z,18.48
2018-12-17T10:14:42.979Z,17.20
2018-12-17T10:17:11.430Z,13.93
2018-12-17T10:19:39.858Z,11.83
2018-12-17T10:22:08.321Z,12.80
2018-12-17T10:24:37.586Z,13.87
2018-12-17T10:27:06.054Z,16.53
2018-12-17T10:29:34.478Z,18.33
2018-12-17T10:32:02.951Z,14.63
2018-12-17T10:34:31.391Z,17.57
2018-12-17T10:36:59.843Z,15.23
2018-12-17T10:39:28.275Z,15.23
2018-12-17T10:41:56.723Z,12.43
2018-12-17T10:44:25.147Z,17.57
2018-12-17T10:46:53.607Z,14.20
2018-12-17T10:49:22.159Z,13.53
2018-12-17T10:51:50.636Z,14.73
2018-12-17T10:54:19.078Z,16.63
2018-12-17T10:56:47.599Z,16.57
2018-12-17T10:59:16.060Z,18.23
2018-12-17T11:01:49.806Z,18.27
2018-12-17T11:04:21.028Z,18.93
2018-12-17T11:06:49.750Z,17.23
2018-12-17T11:09:18.200Z,21.50
2018-12-17T11:11:46.644Z,16.70
2018-12-17T11:14:15.210Z,16.40
2018-12-17T11:16:43.652Z,17.40
2018-12-17T11:19:12.132Z,17.33
2018-12-17T11:21:40.570Z,17.27
2018-12-17T11:24:09.046Z,14.67
2018-12-17T11:26:37.534Z,14.30
2018-12-17T11:29:05.997Z,15.33
2018-12-17T11:31:34.451Z,14.33
2018-12-17T11:34:02.911Z,15.17
2018-12-17T11:36:31.342Z,13.10
2018-12-17T11:38:59.796Z,12.50
2018-12-17T11:41:28.239Z,12.63
2018-12-17T11:43:56.809Z,14.10
2018-12-17T11:46:25.250Z,12.87
2018-12-17T11:48:53.768Z,11.30
2018-12-17T11:51:22.430Z,11.20
2018-12-17T11:53:51.006Z,11.50
2018-12-17T11:56:24.070Z,11.90
2018-12-17T11:58:52.589Z,13.23
2018-12-17T12:01:21.019Z,11.20
2018-12-17T12:03:49.459Z,9.13
2018-12-17T12:06:17.899Z,11.20
2018-12-17T12:08:46.362Z,11.20
2018-12-17T12:11:14.787Z,10.13
2018-12-17T12:13:43.243Z,12.77
2018-12-17T12:16:11.674Z,13.90
2018-12-17T12:18:40.134Z,11.17
2018-12-17T12:21:08.566Z,12.30
2018-12-17T12:23:37.002Z,11.87
2018-12-17T12:26:05.462Z,10.83
2018-12-17T12:28:33.894Z,11.37
2018-12-17T12:31:02.349Z,18.33
2018-12-17T12:33:30.775Z,14.50
2018-12-17T12:35:59.222Z,14.00
2018-12-17T12:38:27.656Z,13.70
2018-12-17T12:40:56.099Z,13.27
2018-12-17T12:43:24.531Z,24.10
2018-12-17T12:45:52.995Z,24.10
2018-12-17T12:48:21.418Z,27.47
2018-12-17T12:50:49.902Z,28.10
2018-12-17T12:53:18.358Z,26.47
2018-12-17T12:55:46.803Z,24.87
2018-12-17T12:58:15.239Z,23.90
2018-12-17T13:00:43.692Z,23.43
2018-12-17T13:03:12.173Z,24.00
2018-12-17T13:05:40.626Z,20.23
2018-12-17T13:08:09.114Z,22.07
2018-12-17T13:10:37.802Z,20.67
2018-12-17T13:13:06.235Z,17.57
2018-12-17T13:15:34.679Z,17.47
2018-12-17T13:18:03.110Z,16.70
2018-12-17T13:20:31.603Z,13.93
2018-12-17T13:23:00.039Z,16.10
2018-12-17T13:25:33.222Z,15.27
2018-12-17T13:28:01.674Z,15.20
2018-12-17T13:30:30.103Z,18.13
2018-12-17T13:32:58.559Z,15.30
2018-12-17T13:35:26.992Z,13.33
2018-12-17T13:37:55.437Z,16.20
2018-12-17T13:40:23.883Z,14.93
2018-12-17T13:42:52.337Z,15.50
2018-12-17T13:45:20.771Z,13.70
2018-12-17T13:47:49.221Z,18.60
2018-12-17T13:50:37.950Z,22.40
2018-12-17T13:53:11.842Z,16.97
2018-12-17T13:55:40.283Z,22.47
2018-12-17T13:58:08.955Z,15.13
2018-12-17T14:00:37.413Z,16.37
2018-12-17T14:03:05.982Z,13.83
2018-12-17T14:05:34.415Z,14.50
2018-12-17T14:08:02.886Z,19.00
2018-12-17T14:10:36.582Z,19.03
2018-12-17T14:13:05.153Z,18.27
2018-12-17T14:15:38.867Z,23.40
2018-12-17T14:18:11.542Z,20.10
2018-12-17T14:20:45.187Z,16.23
2018-12-17T14:23:13.642Z,17.57
2018-12-17T14:25:42.076Z,19.90
2018-12-17T14:28:10.534Z,21.77
2018-12-17T14:30:39.307Z,14.57
2018-12-17T14:33:07.775Z,14.80
2018-12-17T14:35:36.203Z,12.10
2018-12-17T14:38:04.685Z,16.60
2018-12-17T14:40:33.118Z,13.27
2018-12-17T14:43:01.579Z,15.07
2018-12-17T14:45:30.010Z,16.87
2018-12-17T14:47:58.467Z,22.20
2018-12-17T14:50:26.890Z,21.57
2018-12-17T14:52:55.372Z,21.70
2018-12-17T14:55:23.811Z,21.53
2018-12-17T14:57:52.266Z,20.87
2018-12-17T15:00:20.822Z,17.03
2018-12-17T15:02:49.348Z,17.10
2018-12-17T15:05:18.018Z,16.93
2018-12-17T15:07:46.456Z,15.47
2018-12-17T15:10:15.032Z,16.03
2018-12-17T15:12:43.479Z,16.43
2018-12-17T15:15:11.955Z,16.97
2018-12-17T15:17:40.377Z,18.97
2018-12-17T15:20:09.758Z,20.87
2018-12-17T15:22:38.190Z,17.70
2018-12-17T15:25:07.832Z,16.10
2018-12-17T15:27:36.273Z,16.53
2018-12-17T15:30:05.387Z,17.53
2018-12-17T15:32:33.816Z,17.67
2018-12-17T15:35:02.293Z,15.60
2018-12-17T15:37:30.719Z,19.37
2018-12-17T15:39:59.190Z,18.60
2018-12-17T15:42:27.627Z,17.60
2018-12-17T15:44:56.066Z,19.37
2018-12-17T15:47:24.494Z,17.13
2018-12-17T15:49:52.942Z,17.53
2018-12-17T15:52:21.378Z,18.30
2018-12-17T15:54:49.830Z,17.87
2018-12-17T15:57:18.395Z,14.23
2018-12-17T15:59:46.863Z,19.77
2018-12-17T16:02:15.294Z,16.67
2018-12-17T16:04:43.740Z,16.33
2018-12-17T16:07:12.178Z,14.60
2018-12-17T16:09:40.635Z,14.07
2018-12-17T16:12:09.067Z,20.80
2018-12-17T16:14:37.532Z,16.97
2018-12-17T16:17:06.123Z,19.07
2018-12-17T16:19:34.547Z,20.30
2018-12-17T16:22:02.999Z,18.47
2018-12-17T16:24:31.425Z,20.23
2018-12-17T16:26:59.874Z,19.40
2018-12-17T16:29:28.315Z,18.17
2018-12-17T16:31:57.436Z,15.93
2018-12-17T16:34:26.322Z,17.83
2018-12-17T16:36:54.935Z,17.90
2018-12-17T16:39:23.374Z,15.53
2018-12-17T16:41:51.831Z,14.97
2018-12-17T16:44:20.387Z,13.77
2018-12-17T16:46:48.834Z,20.77
2018-12-17T16:49:17.266Z,25.17
2018-12-17T16:51:45.731Z,19.20
2018-12-17T16:54:14.159Z,17.40
2018-12-17T16:56:42.609Z,18.20
2018-12-17T16:59:11.048Z,17.43
2018-12-17T17:01:39.502Z,12.93
2018-12-17T17:04:07.971Z,13.20
2018-12-17T17:06:36.414Z,11.57
2018-12-17T17:09:07.335Z,15.00
2018-12-17T17:11:35.789Z,14.33
2018-12-17T17:14:04.329Z,12.70
2018-12-17T17:16:32.783Z,11.97
2018-12-17T17:19:01.198Z,12.20
2018-12-17T17:21:29.648Z,9.90
2018-12-17T17:23:58.117Z,10.57
2018-12-17T17:26:26.569Z,12.03
2018-12-17T17:28:54.982Z,14.17
2018-12-17T17:31:23.423Z,14.80
2018-12-17T17:33:51.842Z,16.50
2018-12-17T17:36:20.297Z,17.20
2018-12-17T17:38:48.779Z,19.40
2018-12-17T17:41:17.225Z,25.73
2018-12-17T17:43:45.664Z,23.30
2018-12-17T17:46:14.128Z,21.63
2018-12-17T17:48:42.589Z,15.70
2018-12-17T17:51:11.010Z,16.67
2018-12-17T17:53:39.467Z,16.63
2018-12-17T17:56:07.902Z,16.37
2018-12-17T17:58:36.494Z,15.37
2018-12-17T18:01:05.161Z,16.87
2018-12-17T18:03:33.620Z,15.60
2018-12-17T18:06:02.175Z,17.70
2018-12-17T18:08:30.624Z,15.00
2018-12-17T18:10:59.184Z,18.60
2018-12-17T18:13:27.826Z,18.33
2018-12-17T18:15:56.535Z,17.70
2018-12-17T18:18:25.268Z,16.60
2018-12-17T18:20:53.938Z,19.40
2018-12-17T18:23:22.403Z,15.33
2018-12-17T18:25:50.829Z,17.37
2018-12-17T18:28:19.282Z,20.00
2018-12-17T18:30:47.843Z,30.17
2018-12-17T18:33:16.281Z,36.27
2018-12-17T18:35:46.207Z,40.93
2018-12-17T18:38:15.082Z,34.97
2018-12-17T18:40:43.510Z,29.37
2018-12-17T18:43:11.954Z,29.13
2018-12-17T18:45:40.370Z,25.50
2018-12-17T18:48:08.819Z,22.17
2018-12-17T18:50:37.247Z,21.37
2018-12-17T18:53:05.702Z,20.27
2018-12-17T18:55:34.135Z,21.13
2018-12-17T18:58:02.610Z,21.67
2018-12-17T19:00:31.166Z,18.63
2018-12-17T19:02:59.578Z,20.00
2018-12-17T19:05:28.305Z,22.40
2018-12-17T19:07:56.991Z,16.33
2018-12-17T19:10:27.709Z,16.20
2018-12-17T19:12:56.142Z,16.90
2018-12-17T19:15:24.585Z,19.77
2018-12-17T19:17:53.023Z,18.27
2018-12-17T19:20:21.487Z,15.67
2018-12-17T19:22:49.918Z,17.10
2018-12-17T19:25:18.475Z,16.40
2018-12-17T19:27:47.032Z,16.00
2018-12-17T19:30:15.479Z,14.90
2018-12-17T19:32:43.915Z,15.10
2018-12-17T19:35:12.486Z,14.80
2018-12-17T19:37:40.941Z,15.30
2018-12-17T19:40:09.555Z,13.23
2018-12-17T19:42:38.024Z,11.23
2018-12-17T19:45:06.706Z,11.50
2018-12-17T19:47:35.146Z,9.70
2018-12-17T19:50:04.117Z,10.50
2018-12-17T19:52:32.579Z,11.23
2018-12-17T19:55:01.022Z,14.50
2018-12-17T19:57:29.472Z,20.80
2018-12-17T19:59:57.907Z,17.27
2018-12-17T20:02:26.343Z,15.40
2018-12-17T20:04:54.791Z,17.80
2018-12-17T20:07:23.433Z,14.60
2018-12-17T20:09:51.950Z,11.70
2018-12-17T20:12:20.394Z,14.07
2018-12-17T20:14:48.850Z,14.17
2018-12-17T20:17:17.287Z,17.93
2018-12-17T20:19:45.732Z,29.40
2018-12-17T20:22:14.183Z,23.60
2018-12-17T20:24:42.615Z,19.30
2018-12-17T20:27:11.057Z,24.00
2018-12-17T20:29:39.466Z,20.53
2018-12-17T20:32:07.949Z,20.03
2018-12-17T20:34:36.539Z,20.80
2018-12-17T20:37:05.016Z,23.37
2018-12-17T20:39:33.450Z,24.90
2018-12-17T20:42:01.898Z,23.73
2018-12-17T20:44:30.374Z,18.70
2018-12-17T20:46:58.863Z,26.33
2018-12-17T20:49:27.847Z,18.43
2018-12-17T20:51:56.343Z,17.00
2018-12-17T20:54:24.765Z,15.27
2018-12-17T20:56:53.209Z,15.67
2018-12-17T20:59:21.638Z,15.40
2018-12-17T21:01:50.092Z,12.40
2018-12-17T21:04:18.518Z,11.80
2018-12-17T21:06:49.827Z,12.17
2018-12-17T21:09:17.447Z,17.03
2018-12-17T21:11:45.907Z,20.07
2018-12-17T21:14:14.326Z,17.73
2018-12-17T21:16:42.913Z,20.10
2018-12-17T21:19:11.457Z,18.43
2018-12-17T21:21:39.942Z,16.60
2018-12-17T21:24:08.371Z,13.53
2018-12-17T21:26:36.829Z,16.30
2018-12-17T21:29:05.271Z,19.97
2018-12-17T21:31:33.708Z,16.70
2018-12-17T21:34:02.155Z,17.53
2018-12-17T21:36:30.580Z,14.87
2018-12-17T21:38:59.030Z,12.20
2018-12-17T21:41:27.507Z,13.87
2018-12-17T21:43:55.950Z,14.93
2018-12-17T21:46:24.365Z,15.30
2018-12-17T21:48:52.937Z,20.63
2018-12-17T21:51:21.364Z,21.13
2018-12-17T21:53:49.843Z,19.53
2018-12-17T21:56:18.291Z,19.40
2018-12-17T21:58:46.729Z,20.30
2018-12-17T22:01:15.162Z,17.37
2018-12-17T22:03:43.600Z,24.60
2018-12-17T22:06:12.038Z,25.77
2018-12-17T22:08:40.499Z,19.73
2018-12-17T22:11:08.934Z,18.43
2018-12-17T22:13:37.381Z,18.10
2018-12-17T22:16:05.817Z,22.50
2018-12-17T22:18:34.278Z,18.63
2018-12-17T22:21:02.699Z,18.77
2018-12-17T22:23:31.143Z,16.53
2018-12-17T22:25:59.727Z,18.53
2018-12-17T22:28:28.169Z,19.80
2018-12-17T22:30:56.601Z,19.27
2018-12-17T22:33:25.051Z,17.07
2018-12-17T22:35:53.482Z,19.07
2018-12-17T22:38:21.931Z,17.07
2018-12-17T22:40:50.363Z,14.40
2018-12-17T22:43:18.812Z,18.30
2018-12-17T22:45:47.252Z,21.37
2018-12-17T22:48:15.726Z,18.53
2018-12-17T22:50:44.159Z,16.00
2018-12-17T22:53:12.649Z,18.23
2018-12-17T22:55:41.102Z,20.23
2018-12-17T22:58:09.527Z,16.90
2018-12-17T23:00:38.091Z,21.30
2018-12-17T23:03:06.514Z,20.17
2018-12-17T23:05:34.970Z,20.77
2018-12-17T23:08:03.431Z,18.23
2018-12-17T23:10:44.999Z,15.23
2018-12-17T23:13:24.718Z,15.57
2018-12-17T23:16:04.690Z,15.83
2018-12-17T23:18:32.257Z,18.70
2018-12-17T23:21:00.694Z,17.90
2018-12-17T23:23:29.250Z,18.30
2018-12-17T23:25:57.827Z,18.23
2018-12-17T23:28:26.251Z,15.77
2018-12-17T23:30:54.685Z,14.13
2018-12-17T23:33:23.118Z,15.37
2018-12-17T23:35:51.626Z,14.70
2018-12-17T23:38:20.083Z,18.17
2018-12-17T23:40:48.536Z,24.60
2018-12-17T23:43:16.962Z,19.80
2018-12-17T23:45:45.411Z,21.40
2018-12-17T23:48:13.916Z,20.33
2018-12-17T23:50:42.501Z,19.93
2018-12-17T23:53:10.971Z,20.00
2018-12-17T23:55:39.486Z,19.13
2018-12-17T23:58:07.945Z,19.93
